createdAt,value
2022-11-19T00:00:29.483Z,31.00
2022-11-19T00:01:29.454Z,29.10
2022-11-19T00:02:29.446Z,26.70
2022-11-19T00:03:29.395Z,30.40
2022-11-19T00:04:29.364Z,28.60
2022-11-19T00:05:29.334Z,31.50
2022-11-19T00:06:29.321Z,29.80
2022-11-19T00:07:29.295Z,29.00
2022-11-19T00:08:29.245Z,29.50
2022-11-19T00:09:29.218Z,28.70
2022-11-19T00:10:29.185Z,32.80
2022-11-19T00:11:29.159Z,28.60
2022-11-19T00:12:29.126Z,28.70
2022-11-19T00:13:29.098Z,31.30
2022-11-19T00:14:29.071Z,31.80
2022-11-19T00:15:29.037Z,32.00
2022-11-19T00:16:29.009Z,30.70
2022-11-19T00:17:28.979Z,28.80
2022-11-19T00:18:28.948Z,28.60
2022-11-19T00:19:28.918Z,30.20
2022-11-19T00:20:28.889Z,29.30
2022-11-19T00:21:28.862Z,30.10
2022-11-19T00:22:28.849Z,33.50
2022-11-19T00:23:28.802Z,29.00
2022-11-19T00:24:28.769Z,31.60
2022-11-19T00:25:28.740Z,28.20
2022-11-19T00:26:28.710Z,30.40
2022-11-19T00:27:28.681Z,30.10
2022-11-19T00:28:28.649Z,31.00
2022-11-19T00:29:28.621Z,27.00
2022-11-19T00:30:49.239Z,28.40
2022-11-19T00:31:28.565Z,32.10
2022-11-19T00:32:28.533Z,30.30
2022-11-19T00:33:28.502Z,29.20
2022-11-19T00:34:28.474Z,29.80
2022-11-19T00:35:28.444Z,29.30
2022-11-19T00:36:28.413Z,30.50
2022-11-19T00:37:28.384Z,27.70
2022-11-19T00:38:28.432Z,29.20
2022-11-19T00:39:28.325Z,30.90
2022-11-19T00:40:28.294Z,27.50
2022-11-19T00:41:28.264Z,28.40
2022-11-19T00:42:28.236Z,30.60
2022-11-19T00:43:28.206Z,29.10
2022-11-19T00:44:32.567Z,29.30
2022-11-19T00:45:28.148Z,28.40
2022-11-19T00:46:28.121Z,28.40
2022-11-19T00:47:28.088Z,33.40
2022-11-19T00:48:28.055Z,30.60
2022-11-19T00:49:28.030Z,31.70
2022-11-19T00:50:27.999Z,29.30
2022-11-19T00:51:27.967Z,31.50
2022-11-19T00:52:27.937Z,29.00
2022-11-19T00:53:27.910Z,30.10
2022-11-19T00:54:27.894Z,27.90
2022-11-19T00:55:27.852Z,29.70
2022-11-19T00:56:27.827Z,32.50
2022-11-19T00:57:27.788Z,27.40
2022-11-19T00:58:27.756Z,27.10
2022-11-19T00:59:27.729Z,29.70
2022-11-19T01:00:27.700Z,28.50
2022-11-19T01:01:27.719Z,30.70
2022-11-19T01:02:27.639Z,31.10
2022-11-19T01:03:27.607Z,27.00
2022-11-19T01:04:27.579Z,27.50
2022-11-19T01:05:27.550Z,30.10
2022-11-19T01:06:27.516Z,28.10
2022-11-19T01:07:27.510Z,29.70
2022-11-19T01:08:27.456Z,28.50
2022-11-19T01:09:27.432Z,31.60
2022-11-19T01:10:27.422Z,32.30
2022-11-19T01:11:27.372Z,30.30
2022-11-19T01:12:27.345Z,31.20
2022-11-19T01:13:27.312Z,30.10
2022-11-19T01:14:27.278Z,29.30
2022-11-19T01:15:27.249Z,32.30
2022-11-19T01:16:27.221Z,30.00
2022-11-19T01:17:27.192Z,30.10
2022-11-19T01:18:27.173Z,30.40
2022-11-19T01:19:27.131Z,29.50
2022-11-19T01:20:27.139Z,28.70
2022-11-19T01:21:27.074Z,27.80
2022-11-19T01:22:27.038Z,30.50
2022-11-19T01:23:27.012Z,31.40
2022-11-19T01:24:26.981Z,30.50
2022-11-19T01:25:26.952Z,30.20
2022-11-19T01:26:26.939Z,34.00
2022-11-19T01:27:26.892Z,32.90
2022-11-19T01:28:26.856Z,31.20
2022-11-19T01:29:26.832Z,30.60
2022-11-19T01:30:26.798Z,32.00
2022-11-19T01:31:26.769Z,29.50
2022-11-19T01:32:26.740Z,31.60
2022-11-19T01:33:26.709Z,32.20
2022-11-19T01:34:26.680Z,32.90
2022-11-19T01:35:26.651Z,30.90
2022-11-19T01:36:26.619Z,30.40
2022-11-19T01:37:26.592Z,29.20
2022-11-19T01:38:26.564Z,30.00
2022-11-19T01:39:26.528Z,30.00
2022-11-19T01:40:26.502Z,30.50
2022-11-19T01:41:26.474Z,30.10
2022-11-19T01:42:26.458Z,32.10
2022-11-19T01:43:26.413Z,29.90
2022-11-19T01:44:26.377Z,30.60
2022-11-19T01:45:26.352Z,30.30
2022-11-19T01:46:26.322Z,30.80
2022-11-19T01:47:26.293Z,34.10
2022-11-19T01:48:26.263Z,31.70
2022-11-19T01:49:26.232Z,30.60
2022-11-19T01:50:26.205Z,29.40
2022-11-19T01:51:26.178Z,32.10
2022-11-19T01:52:26.143Z,30.90
2022-11-19T01:53:26.112Z,31.10
2022-11-19T01:54:26.086Z,34.30
2022-11-19T01:55:26.048Z,33.30
2022-11-19T01:56:26.024Z,31.90
2022-11-19T01:57:26.000Z,32.60
2022-11-19T01:58:25.977Z,34.90
2022-11-19T01:59:25.928Z,32.30
2022-11-19T02:00:25.902Z,31.90
2022-11-19T02:01:25.895Z,33.50
2022-11-19T02:02:25.843Z,33.50
2022-11-19T02:03:25.808Z,32.70
2022-11-19T02:04:25.781Z,33.30
2022-11-19T02:05:25.751Z,33.10
2022-11-19T02:06:25.726Z,32.90
2022-11-19T02:07:25.766Z,30.80
2022-11-19T02:08:25.669Z,28.90
2022-11-19T02:09:25.628Z,31.80
2022-11-19T02:10:25.603Z,33.30
2022-11-19T02:11:25.573Z,32.50
2022-11-19T02:12:25.553Z,33.60
2022-11-19T02:13:25.508Z,30.80
2022-11-19T02:14:25.502Z,32.60
2022-11-19T02:15:25.446Z,34.50
2022-11-19T02:16:25.420Z,30.40
2022-11-19T02:17:25.388Z,34.20
2022-11-19T02:18:25.360Z,35.00
2022-11-19T02:19:25.329Z,34.40
2022-11-19T02:20:25.299Z,30.70
2022-11-19T02:21:25.269Z,32.80
2022-11-19T02:22:25.241Z,34.20
2022-11-19T02:23:25.210Z,30.90
2022-11-19T02:24:25.183Z,35.50
2022-11-19T02:25:25.147Z,32.80
2022-11-19T02:26:25.122Z,34.60
2022-11-19T02:27:25.087Z,34.60
2022-11-19T02:28:25.060Z,33.10
2022-11-19T02:29:25.028Z,31.10
2022-11-19T02:30:25.016Z,32.30
2022-11-19T02:31:24.967Z,30.70
2022-11-19T02:32:24.939Z,32.80
2022-11-19T02:33:24.919Z,32.40
2022-11-19T02:34:24.879Z,35.10
2022-11-19T02:35:24.849Z,33.70
2022-11-19T02:36:24.818Z,33.40
2022-11-19T02:37:24.788Z,33.70
2022-11-19T02:38:24.757Z,35.80
2022-11-19T02:39:24.725Z,32.50
2022-11-19T02:40:24.703Z,33.00
2022-11-19T02:41:24.674Z,33.40
2022-11-19T02:42:24.635Z,35.50
2022-11-19T02:43:24.604Z,35.10
2022-11-19T02:44:24.575Z,34.90
2022-11-19T02:45:24.546Z,33.00
2022-11-19T02:46:24.538Z,33.80
2022-11-19T02:47:24.483Z,36.10
2022-11-19T02:48:24.456Z,31.60
2022-11-19T02:49:24.423Z,31.80
2022-11-19T02:50:24.394Z,32.20
2022-11-19T02:51:24.363Z,31.50
2022-11-19T02:52:24.334Z,33.70
2022-11-19T02:53:24.303Z,29.80
2022-11-19T02:54:24.275Z,31.60
2022-11-19T02:55:24.246Z,33.40
2022-11-19T02:56:24.216Z,36.50
2022-11-19T02:57:24.186Z,31.00
2022-11-19T02:58:24.156Z,32.50
2022-11-19T02:59:24.126Z,37.10
2022-11-19T03:00:24.094Z,32.20
2022-11-19T03:01:24.080Z,33.90
2022-11-19T03:02:24.054Z,33.10
2022-11-19T03:03:24.002Z,32.70
2022-11-19T03:04:23.974Z,31.50
2022-11-19T03:05:23.941Z,35.50
2022-11-19T03:06:23.914Z,34.40
2022-11-19T03:07:23.993Z,33.90
2022-11-19T03:08:23.852Z,30.80
2022-11-19T03:09:23.823Z,32.00
2022-11-19T03:10:23.793Z,35.70
2022-11-19T03:11:23.761Z,30.30
2022-11-19T03:12:23.732Z,31.80
2022-11-19T03:13:23.701Z,35.20
2022-11-19T03:14:23.681Z,33.80
2022-11-19T03:15:23.639Z,34.10
2022-11-19T03:16:23.612Z,30.60
2022-11-19T03:17:23.580Z,34.20
2022-11-19T03:18:23.579Z,34.00
2022-11-19T03:19:23.522Z,35.20
2022-11-19T03:20:23.490Z,33.70
2022-11-19T03:21:23.458Z,33.20
2022-11-19T03:22:23.433Z,31.90
2022-11-19T03:23:23.401Z,31.80
2022-11-19T03:24:23.368Z,32.30
2022-11-19T03:25:23.341Z,31.90
2022-11-19T03:26:23.311Z,30.70
2022-11-19T03:27:23.277Z,30.70
2022-11-19T03:28:23.248Z,32.90
2022-11-19T03:29:23.219Z,32.40
2022-11-19T03:30:23.190Z,32.10
2022-11-19T03:31:23.157Z,35.80
2022-11-19T03:32:23.130Z,31.40
2022-11-19T03:33:23.098Z,35.60
2022-11-19T03:34:23.156Z,34.50
2022-11-19T03:35:23.034Z,31.90
2022-11-19T03:36:23.010Z,31.00
2022-11-19T03:37:22.976Z,34.60
2022-11-19T03:38:22.949Z,34.40
2022-11-19T03:39:22.916Z,32.70
2022-11-19T03:40:22.888Z,33.40
2022-11-19T03:41:22.858Z,31.30
2022-11-19T03:42:22.828Z,35.30
2022-11-19T03:43:22.794Z,33.10
2022-11-19T03:44:22.766Z,31.30
2022-11-19T03:45:22.736Z,35.20
2022-11-19T03:46:22.705Z,32.30
2022-11-19T03:47:22.675Z,33.30
2022-11-19T03:48:22.653Z,34.40
2022-11-19T03:49:22.614Z,33.10
2022-11-19T03:50:22.604Z,33.90
2022-11-19T03:51:22.551Z,31.80
2022-11-19T03:52:22.528Z,34.00
2022-11-19T03:53:22.491Z,32.80
2022-11-19T03:54:22.466Z,32.10
2022-11-19T03:55:22.435Z,35.30
2022-11-19T03:56:22.407Z,36.10
2022-11-19T03:57:22.373Z,31.40
2022-11-19T03:58:22.348Z,34.20
2022-11-19T03:59:25.549Z,35.40
2022-11-19T04:00:22.281Z,33.90
2022-11-19T04:01:22.313Z,32.80
2022-11-19T04:02:22.223Z,31.80
2022-11-19T04:03:22.189Z,31.00
2022-11-19T04:04:22.163Z,34.70
2022-11-19T04:05:22.130Z,30.40
2022-11-19T04:06:22.117Z,34.70
2022-11-19T04:07:22.173Z,34.80
2022-11-19T04:08:22.042Z,32.90
2022-11-19T04:09:22.264Z,35.30
2022-11-19T04:10:21.982Z,32.40
2022-11-19T04:12:01.345Z,31.70
2022-11-19T04:13:01.309Z,31.70
2022-11-19T04:14:01.280Z,30.60
2022-11-19T04:15:01.247Z,32.00
2022-11-19T04:16:01.221Z,30.70
2022-11-19T04:17:01.189Z,30.30
2022-11-19T04:18:01.162Z,32.90
2022-11-19T04:19:01.128Z,29.60
2022-11-19T04:20:01.099Z,32.50
2022-11-19T04:21:01.069Z,30.40
2022-11-19T04:22:01.059Z,30.30
2022-11-19T04:23:01.014Z,29.00
2022-11-19T04:24:00.979Z,30.40
2022-11-19T04:25:00.947Z,29.80
2022-11-19T04:26:00.927Z,32.90
2022-11-19T04:27:00.885Z,29.70
2022-11-19T04:28:00.860Z,32.70
2022-11-19T04:29:00.823Z,30.60
2022-11-19T04:30:00.798Z,29.60
2022-11-19T04:31:00.765Z,30.30
2022-11-19T04:32:00.733Z,31.10
2022-11-19T04:33:00.704Z,29.80
2022-11-19T04:34:00.676Z,30.80
2022-11-19T04:35:00.643Z,30.40
2022-11-19T04:36:00.623Z,32.20
2022-11-19T04:37:00.582Z,29.20
2022-11-19T04:38:00.574Z,28.80
2022-11-19T04:39:00.520Z,30.30
2022-11-19T04:40:00.496Z,28.90
2022-11-19T04:41:00.461Z,32.40
2022-11-19T04:42:00.430Z,29.10
2022-11-19T04:43:00.398Z,29.50
2022-11-19T04:44:00.371Z,32.90
2022-11-19T04:45:00.340Z,26.90
2022-11-19T04:46:00.310Z,28.10
2022-11-19T04:47:00.278Z,30.20
2022-11-19T04:48:00.248Z,27.60
2022-11-19T04:49:00.224Z,31.10
2022-11-19T04:50:00.190Z,29.10
2022-11-19T04:51:00.156Z,30.20
2022-11-19T04:52:00.131Z,29.10
2022-11-19T04:53:00.115Z,29.50
2022-11-19T04:54:00.096Z,28.80
2022-11-19T04:55:00.033Z,25.80
2022-11-19T04:56:00.003Z,29.50
2022-11-19T04:56:59.972Z,31.10
2022-11-19T04:57:59.944Z,29.70
2022-11-19T04:58:59.911Z,28.20
2022-11-19T04:59:59.882Z,28.40
2022-11-19T05:00:59.851Z,29.20
2022-11-19T05:01:59.876Z,30.00
2022-11-19T05:02:59.788Z,30.40
2022-11-19T05:03:59.760Z,32.80
2022-11-19T05:04:59.733Z,28.50
2022-11-19T05:05:59.699Z,28.70
2022-11-19T05:06:59.736Z,33.20
2022-11-19T05:07:59.641Z,29.80
2022-11-19T05:08:59.608Z,29.70
2022-11-19T05:09:59.605Z,26.50
2022-11-19T05:10:59.546Z,27.60
2022-11-19T05:11:59.515Z,27.70
2022-11-19T05:12:59.489Z,30.90
2022-11-19T05:13:59.456Z,31.00
2022-11-19T05:14:59.427Z,29.00
2022-11-19T05:15:59.394Z,28.20
2022-11-19T05:16:59.364Z,27.80
2022-11-19T05:17:59.335Z,26.90
2022-11-19T05:18:59.302Z,27.50
2022-11-19T05:19:59.274Z,29.60
2022-11-19T05:20:59.241Z,25.30
2022-11-19T05:21:59.211Z,28.20
2022-11-19T05:22:59.179Z,27.40
2022-11-19T05:23:59.153Z,27.40
2022-11-19T05:24:59.116Z,27.90
2022-11-19T05:25:59.114Z,28.10
2022-11-19T05:26:59.056Z,28.50
2022-11-19T05:27:59.026Z,29.10
2022-11-19T05:28:58.996Z,26.70
2022-11-19T05:29:58.968Z,29.00
2022-11-19T05:30:58.935Z,26.30
2022-11-19T05:31:58.904Z,27.70
2022-11-19T05:32:58.878Z,26.30
2022-11-19T05:33:58.845Z,29.50
2022-11-19T05:34:58.812Z,27.20
2022-11-19T05:35:58.794Z,28.50
2022-11-19T05:36:58.748Z,31.50
2022-11-19T05:37:58.726Z,27.80
2022-11-19T05:38:58.688Z,27.20
2022-11-19T05:39:58.660Z,27.60
2022-11-19T05:40:58.627Z,30.50
2022-11-19T05:41:58.619Z,29.30
2022-11-19T05:42:58.564Z,26.20
2022-11-19T05:43:58.537Z,31.00
2022-11-19T05:44:58.504Z,27.30
2022-11-19T05:45:58.474Z,30.80
2022-11-19T05:46:58.441Z,30.40
2022-11-19T05:47:58.750Z,29.70
2022-11-19T05:48:58.381Z,29.40
2022-11-19T05:49:58.353Z,28.20
2022-11-19T05:50:58.322Z,26.20
2022-11-19T05:51:58.290Z,29.80
2022-11-19T05:52:58.257Z,27.90
2022-11-19T05:53:58.242Z,26.20
2022-11-19T05:54:58.195Z,26.50
2022-11-19T05:55:58.167Z,29.40
2022-11-19T05:56:58.135Z,25.80
2022-11-19T05:57:58.126Z,30.10
2022-11-19T05:58:58.074Z,28.00
2022-11-19T05:59:58.042Z,26.10
2022-11-19T06:00:58.010Z,27.20
2022-11-19T06:01:57.982Z,26.90
2022-11-19T06:02:58.035Z,24.60
2022-11-19T06:03:57.921Z,24.70
2022-11-19T06:04:57.912Z,28.20
2022-11-19T06:05:57.860Z,26.10
2022-11-19T06:06:57.895Z,24.10
2022-11-19T06:07:57.795Z,23.10
2022-11-19T06:08:57.762Z,26.30
2022-11-19T06:09:57.734Z,26.60
2022-11-19T06:10:57.700Z,27.50
2022-11-19T06:11:57.674Z,26.50
2022-11-19T06:12:57.639Z,26.20
2022-11-19T06:13:57.626Z,25.10
2022-11-19T06:14:57.577Z,26.50
2022-11-19T06:15:57.549Z,30.20
2022-11-19T06:16:57.523Z,25.50
2022-11-19T06:17:57.492Z,25.00
2022-11-19T06:18:57.459Z,25.30
2022-11-19T06:19:57.447Z,25.10
2022-11-19T06:20:57.392Z,22.30
2022-11-19T06:21:57.364Z,26.00
2022-11-19T06:22:57.328Z,22.50
2022-11-19T06:23:57.324Z,24.10
2022-11-19T06:24:57.265Z,29.90
2022-11-19T06:25:57.237Z,23.50
2022-11-19T06:26:57.206Z,25.40
2022-11-19T06:27:57.178Z,24.40
2022-11-19T06:28:57.142Z,26.50
2022-11-19T06:29:57.135Z,23.20
2022-11-19T06:30:57.077Z,26.50
2022-11-19T06:31:57.049Z,26.80
2022-11-19T06:32:57.017Z,23.20
2022-11-19T06:33:56.988Z,23.50
2022-11-19T06:34:56.960Z,23.10
2022-11-19T06:35:56.925Z,25.40
2022-11-19T06:36:56.896Z,22.10
2022-11-19T06:37:56.864Z,23.40
2022-11-19T06:38:56.830Z,22.40
2022-11-19T06:39:56.804Z,21.10
2022-11-19T06:40:56.768Z,21.50
2022-11-19T06:41:56.741Z,23.90
2022-11-19T06:42:56.704Z,21.90
2022-11-19T06:43:56.675Z,23.40
2022-11-19T06:44:56.643Z,24.30
2022-11-19T06:45:56.637Z,22.60
2022-11-19T06:46:56.583Z,26.60
2022-11-19T06:47:56.552Z,22.10
2022-11-19T06:48:56.522Z,24.50
2022-11-19T06:49:56.497Z,20.00
2022-11-19T06:50:56.457Z,20.80
2022-11-19T06:51:56.429Z,22.40
2022-11-19T06:52:56.398Z,23.40
2022-11-19T06:53:56.366Z,23.50
2022-11-19T06:54:56.334Z,22.50
2022-11-19T06:55:56.303Z,22.70
2022-11-19T06:56:56.275Z,21.20
2022-11-19T06:57:56.244Z,21.20
2022-11-19T06:58:56.209Z,19.60
2022-11-19T06:59:56.184Z,22.20
2022-11-19T07:00:56.147Z,22.50
2022-11-19T07:01:56.280Z,23.60
2022-11-19T07:02:56.087Z,21.30
2022-11-19T07:03:56.055Z,22.90
2022-11-19T07:04:56.023Z,19.40
2022-11-19T07:05:55.992Z,20.40
2022-11-19T07:06:56.013Z,21.40
2022-11-19T07:08:00.139Z,21.50
2022-11-19T07:08:55.901Z,21.40
2022-11-19T07:09:55.868Z,22.10
2022-11-19T07:10:55.836Z,20.20
2022-11-19T07:11:55.804Z,18.80
2022-11-19T07:12:55.775Z,20.10
2022-11-19T07:13:55.745Z,21.80
2022-11-19T07:14:58.559Z,19.90
2022-11-19T07:15:55.682Z,19.60
2022-11-19T07:16:55.648Z,18.50
2022-11-19T07:17:55.641Z,20.60
2022-11-19T07:18:55.585Z,21.00
2022-11-19T07:19:55.557Z,18.90
2022-11-19T07:20:55.524Z,20.80
2022-11-19T07:21:55.494Z,19.30
2022-11-19T07:22:59.200Z,21.80
2022-11-19T07:23:55.433Z,19.20
2022-11-19T07:24:55.402Z,20.80
2022-11-19T07:25:55.370Z,20.20
2022-11-19T07:26:55.336Z,19.50
2022-11-19T07:27:55.305Z,18.30
2022-11-19T07:28:55.271Z,19.30
2022-11-19T07:29:55.245Z,20.60
2022-11-19T07:30:55.213Z,20.50
2022-11-19T07:31:55.181Z,20.90
2022-11-19T07:32:55.149Z,21.10
2022-11-19T07:33:55.140Z,18.30
2022-11-19T07:34:55.087Z,17.80
2022-11-19T07:35:55.059Z,21.20
2022-11-19T07:36:55.024Z,18.60
2022-11-19T07:37:54.992Z,18.70
2022-11-19T07:38:54.961Z,18.80
2022-11-19T07:39:54.934Z,18.30
2022-11-19T07:40:54.900Z,18.40
2022-11-19T07:41:54.869Z,19.40
2022-11-19T07:42:54.837Z,17.90
2022-11-19T07:43:54.809Z,18.00
2022-11-19T07:44:55.246Z,18.60
2022-11-19T07:45:54.744Z,18.90
2022-11-19T07:46:54.714Z,18.30
2022-11-19T07:47:54.682Z,15.80
2022-11-19T07:48:54.653Z,18.20
2022-11-19T07:49:54.638Z,20.30
2022-11-19T07:50:56.593Z,18.70
2022-11-19T07:51:54.558Z,17.60
2022-11-19T07:52:54.527Z,16.60
2022-11-19T07:53:54.498Z,18.60
2022-11-19T07:54:54.463Z,15.80
2022-11-19T07:55:54.431Z,16.30
2022-11-19T07:56:54.400Z,18.50
2022-11-19T07:57:54.369Z,18.80
2022-11-19T07:58:54.342Z,18.50
2022-11-19T07:59:54.307Z,20.30
2022-11-19T08:00:54.281Z,18.40
2022-11-19T08:01:54.338Z,19.80
2022-11-19T08:02:54.213Z,19.80
2022-11-19T08:03:56.531Z,17.70
2022-11-19T08:04:54.154Z,21.30
2022-11-19T08:05:54.143Z,20.60
2022-11-19T08:06:54.091Z,20.30
2022-11-19T08:07:54.058Z,23.00
2022-11-19T08:08:54.025Z,27.90
2022-11-19T08:09:53.999Z,20.20
2022-11-19T08:10:53.962Z,18.50
2022-11-19T08:11:53.933Z,22.60
2022-11-19T08:12:53.900Z,26.00
2022-11-19T08:13:53.871Z,19.90
2022-11-19T08:14:53.837Z,19.40
2022-11-19T08:15:53.808Z,19.00
2022-11-19T08:16:53.777Z,23.10
2022-11-19T08:17:53.747Z,18.80
2022-11-19T08:18:53.712Z,18.10
2022-11-19T08:19:53.684Z,16.60
2022-11-19T08:20:53.650Z,19.00
2022-11-19T08:21:53.639Z,17.60
2022-11-19T08:22:53.587Z,18.10
2022-11-19T08:23:53.581Z,18.20
2022-11-19T08:24:53.525Z,18.50
2022-11-19T08:25:53.498Z,18.40
2022-11-19T08:26:53.460Z,17.80
2022-11-19T08:27:53.432Z,15.40
2022-11-19T08:28:53.400Z,16.60
2022-11-19T08:29:53.383Z,16.60
2022-11-19T08:30:53.337Z,16.00
2022-11-19T08:31:53.305Z,17.50
2022-11-19T08:32:53.277Z,14.40
2022-11-19T08:33:53.245Z,13.30
2022-11-19T08:34:53.214Z,15.80
2022-11-19T08:35:53.179Z,16.70
2022-11-19T08:36:53.150Z,16.10
2022-11-19T08:37:53.139Z,17.00
2022-11-19T08:38:53.088Z,17.10
2022-11-19T08:39:53.059Z,16.20
2022-11-19T08:40:53.027Z,15.80
2022-11-19T08:41:53.000Z,15.10
2022-11-19T08:42:52.963Z,16.80
2022-11-19T08:43:52.932Z,14.90
2022-11-19T08:44:52.901Z,14.50
2022-11-19T08:45:52.870Z,15.40
2022-11-19T08:46:52.839Z,16.80
2022-11-19T08:47:52.812Z,15.50
2022-11-19T08:48:52.777Z,16.00
2022-11-19T08:49:52.749Z,16.80
2022-11-19T08:50:52.714Z,17.40
2022-11-19T08:51:52.682Z,16.10
2022-11-19T08:52:52.656Z,17.20
2022-11-19T08:53:52.636Z,17.30
2022-11-19T08:54:52.590Z,15.60
2022-11-19T08:55:52.561Z,15.20
2022-11-19T08:56:52.527Z,15.90
2022-11-19T08:57:52.495Z,18.60
2022-11-19T08:58:52.465Z,19.70
2022-11-19T08:59:52.433Z,17.50
2022-11-19T09:00:52.429Z,14.70
2022-11-19T09:01:52.369Z,16.80
2022-11-19T09:02:52.339Z,17.80
2022-11-19T09:03:52.308Z,16.00
2022-11-19T09:04:52.278Z,19.00
2022-11-19T09:05:52.244Z,16.10
2022-11-19T09:06:52.216Z,15.90
2022-11-19T09:07:52.184Z,16.60
2022-11-19T09:08:52.154Z,16.40
2022-11-19T09:09:52.137Z,15.10
2022-11-19T09:10:52.091Z,14.20
2022-11-19T09:11:52.057Z,13.60
2022-11-19T09:12:52.031Z,13.50
2022-11-19T09:13:51.998Z,15.20
2022-11-19T09:14:51.966Z,12.20
2022-11-19T09:15:51.932Z,15.60
2022-11-19T09:16:51.902Z,13.70
2022-11-19T09:17:51.869Z,14.70
2022-11-19T09:18:51.842Z,15.20
2022-11-19T09:19:51.814Z,14.40
2022-11-19T09:20:51.784Z,13.50
2022-11-19T09:21:51.746Z,14.40
2022-11-19T09:22:51.718Z,15.20
2022-11-19T09:23:51.685Z,17.90
2022-11-19T09:24:51.658Z,15.10
2022-11-19T09:25:51.649Z,13.90
2022-11-19T09:26:53.061Z,14.10
2022-11-19T09:27:51.562Z,14.00
2022-11-19T09:28:51.534Z,13.00
2022-11-19T09:29:51.501Z,13.60
2022-11-19T09:30:51.473Z,15.20
2022-11-19T09:31:51.442Z,16.50
2022-11-19T09:32:51.411Z,13.10
2022-11-19T09:33:51.379Z,13.30
2022-11-19T09:34:51.349Z,12.60
2022-11-19T09:35:51.318Z,15.00
2022-11-19T09:36:51.292Z,16.00
2022-11-19T09:37:51.258Z,11.70
2022-11-19T09:38:51.236Z,12.20
2022-11-19T09:39:51.195Z,13.10
2022-11-19T09:40:51.170Z,13.90
2022-11-19T09:41:51.159Z,13.30
2022-11-19T09:42:51.106Z,13.40
2022-11-19T09:43:51.082Z,11.70
2022-11-19T09:44:51.049Z,12.20
2022-11-19T09:45:51.019Z,12.70
2022-11-19T09:46:50.990Z,13.00
2022-11-19T09:47:50.958Z,12.40
2022-11-19T09:48:50.933Z,11.70
2022-11-19T09:49:50.899Z,11.60
2022-11-19T09:50:53.497Z,11.40
2022-11-19T09:51:50.837Z,10.20
2022-11-19T09:52:50.814Z,12.40
2022-11-19T09:53:50.782Z,11.20
2022-11-19T09:54:50.749Z,12.10
2022-11-19T09:55:50.721Z,12.30
2022-11-19T09:56:50.691Z,9.40
2022-11-19T09:57:50.678Z,11.60
2022-11-19T09:58:50.671Z,9.40
2022-11-19T09:59:50.619Z,12.40
2022-11-19T10:00:50.574Z,12.20
2022-11-19T10:01:50.545Z,10.60
2022-11-19T10:02:50.590Z,11.80
2022-11-19T10:03:50.486Z,13.40
2022-11-19T10:04:50.459Z,10.90
2022-11-19T10:05:50.430Z,11.30
2022-11-19T10:06:50.401Z,12.80
2022-11-19T10:07:50.370Z,12.00
2022-11-19T10:08:50.345Z,10.90
2022-11-19T10:09:50.312Z,9.70
2022-11-19T10:10:50.286Z,11.40
2022-11-19T10:11:50.256Z,11.40
2022-11-19T10:12:50.230Z,12.60
2022-11-19T10:13:50.214Z,12.50
2022-11-19T10:14:50.170Z,11.40
2022-11-19T10:15:50.144Z,12.70
2022-11-19T10:16:50.112Z,11.60
2022-11-19T10:17:50.087Z,11.20
2022-11-19T10:18:50.176Z,10.90
2022-11-19T10:19:50.026Z,11.00
2022-11-19T10:20:50.002Z,14.60
2022-11-19T10:21:49.971Z,10.90
2022-11-19T10:22:55.796Z,9.20
2022-11-19T10:23:49.912Z,12.50
2022-11-19T10:24:49.888Z,12.00
2022-11-19T10:25:50.273Z,13.00
2022-11-19T10:26:50.204Z,10.50
2022-11-19T10:27:49.814Z,11.10
2022-11-19T10:28:49.888Z,13.40
2022-11-19T10:29:49.772Z,10.70
2022-11-19T10:30:49.717Z,11.70
2022-11-19T10:31:49.686Z,12.00
2022-11-19T10:32:49.659Z,11.40
2022-11-19T10:33:49.632Z,12.00
2022-11-19T10:34:49.602Z,13.20
2022-11-19T10:35:49.573Z,9.80
2022-11-19T10:36:49.548Z,14.40
2022-11-19T10:37:49.518Z,13.20
2022-11-19T10:38:51.315Z,11.20
2022-11-19T10:39:49.464Z,12.40
2022-11-19T10:40:49.436Z,10.50
2022-11-19T10:41:49.411Z,10.90
2022-11-19T10:42:49.383Z,11.10
2022-11-19T10:43:49.352Z,12.10
2022-11-19T10:44:49.325Z,10.80
2022-11-19T10:45:49.377Z,10.50
2022-11-19T10:46:49.278Z,12.00
2022-11-19T10:47:49.243Z,10.50
2022-11-19T10:48:49.218Z,11.00
2022-11-19T10:49:49.192Z,11.40
2022-11-19T10:50:49.162Z,10.80
2022-11-19T10:51:49.135Z,10.30
2022-11-19T10:52:49.109Z,9.90
2022-11-19T10:53:49.081Z,10.60
2022-11-19T10:54:49.052Z,11.60
2022-11-19T10:55:54.267Z,9.80
2022-11-19T10:56:49.000Z,10.50
2022-11-19T10:57:48.973Z,10.90
2022-11-19T10:58:48.949Z,10.90
2022-11-19T10:59:48.918Z,10.40
2022-11-19T11:00:49.044Z,10.50
2022-11-19T11:01:48.887Z,10.50
2022-11-19T11:02:48.836Z,9.60
2022-11-19T11:03:48.808Z,10.60
2022-11-19T11:04:48.784Z,9.90
2022-11-19T11:05:48.754Z,11.10
2022-11-19T11:06:48.728Z,9.80
2022-11-19T11:07:50.617Z,10.00
2022-11-19T11:08:48.671Z,10.60
2022-11-19T11:09:48.646Z,10.40
2022-11-19T11:10:48.640Z,10.10
2022-11-19T11:11:48.586Z,10.70
2022-11-19T11:12:48.562Z,9.90
2022-11-19T11:13:48.532Z,8.80
2022-11-19T11:14:48.506Z,12.80
2022-11-19T11:15:48.477Z,10.60
2022-11-19T11:16:48.453Z,11.90
2022-11-19T11:17:48.461Z,10.90
2022-11-19T11:18:48.393Z,10.30
2022-11-19T11:19:48.360Z,8.80
2022-11-19T11:20:48.335Z,10.20
2022-11-19T11:21:48.306Z,9.50
2022-11-19T11:22:48.277Z,9.80
2022-11-19T11:23:48.249Z,11.10
2022-11-19T11:24:48.221Z,8.40
2022-11-19T11:25:48.190Z,9.90
2022-11-19T11:26:48.160Z,8.50
2022-11-19T11:27:48.135Z,8.70
2022-11-19T11:28:48.105Z,9.10
2022-11-19T11:29:48.075Z,8.20
2022-11-19T11:30:48.048Z,7.60
2022-11-19T11:31:48.018Z,8.70
2022-11-19T11:32:47.991Z,8.70
2022-11-19T11:33:47.986Z,8.60
2022-11-19T11:34:47.991Z,8.30
2022-11-19T11:35:47.906Z,8.60
2022-11-19T11:36:47.873Z,8.10
2022-11-19T11:37:47.876Z,8.10
2022-11-19T11:38:47.815Z,9.20
2022-11-19T11:39:47.784Z,12.20
2022-11-19T11:40:47.756Z,9.00
2022-11-19T11:42:05.930Z,8.50
2022-11-19T11:42:47.697Z,8.80
2022-11-19T11:43:47.666Z,8.70
2022-11-19T11:44:47.639Z,10.30
2022-11-19T11:45:47.626Z,8.10
2022-11-19T11:46:47.593Z,8.50
2022-11-19T11:47:47.549Z,8.80
2022-11-19T11:48:47.525Z,9.70
2022-11-19T11:49:47.514Z,8.30
2022-11-19T11:50:47.462Z,7.50
2022-11-19T11:51:47.457Z,8.30
2022-11-19T11:52:47.403Z,7.40
2022-11-19T11:53:47.374Z,8.50
2022-11-19T11:54:47.359Z,8.40
2022-11-19T11:55:47.315Z,8.30
2022-11-19T11:56:47.299Z,8.40
2022-11-19T11:57:47.255Z,7.90
2022-11-19T11:58:47.229Z,7.30
2022-11-19T11:59:47.197Z,7.90
2022-11-19T12:00:47.169Z,9.00
2022-11-19T12:01:47.140Z,8.50
2022-11-19T12:02:47.136Z,8.10
2022-11-19T12:03:54.868Z,7.40
2022-11-19T12:04:47.050Z,8.30
2022-11-19T12:05:47.043Z,7.90
2022-11-19T12:06:46.991Z,7.80
2022-11-19T12:07:46.961Z,7.60
2022-11-19T12:08:46.932Z,8.20
2022-11-19T12:09:46.902Z,8.60
2022-11-19T12:10:46.874Z,8.20
2022-11-19T12:11:46.844Z,7.60
2022-11-19T12:12:46.818Z,7.20
2022-11-19T12:13:46.782Z,9.20
2022-11-19T12:14:46.753Z,7.70
2022-11-19T12:15:46.723Z,6.70
2022-11-19T12:16:46.698Z,7.90
2022-11-19T12:17:46.664Z,8.50
2022-11-19T12:18:46.635Z,8.80
2022-11-19T12:19:46.611Z,8.40
2022-11-19T12:20:46.578Z,7.20
2022-11-19T12:21:46.568Z,7.10
2022-11-19T12:22:46.516Z,8.60
2022-11-19T12:23:46.486Z,6.80
2022-11-19T12:24:46.459Z,8.00
2022-11-19T12:25:46.440Z,9.30
2022-11-19T12:26:46.399Z,8.00
2022-11-19T12:27:46.365Z,8.90
2022-11-19T12:28:46.339Z,7.30
2022-11-19T12:29:46.307Z,7.50
2022-11-19T12:30:46.281Z,7.40
2022-11-19T12:31:46.247Z,8.20
2022-11-19T12:32:46.225Z,7.20
2022-11-19T12:33:46.189Z,7.90
2022-11-19T12:34:46.160Z,7.00
2022-11-19T12:35:46.128Z,7.80
2022-11-19T12:36:46.103Z,6.90
2022-11-19T12:37:46.091Z,6.80
2022-11-19T12:38:46.041Z,6.40
2022-11-19T12:39:46.010Z,5.30
2022-11-19T12:40:45.997Z,6.40
2022-11-19T12:41:45.955Z,7.30
2022-11-19T12:42:45.921Z,5.50
2022-11-19T12:43:45.895Z,6.10
2022-11-19T12:44:45.864Z,5.80
2022-11-19T12:45:45.833Z,6.60
2022-11-19T12:46:45.802Z,5.80
2022-11-19T12:47:45.773Z,5.60
2022-11-19T12:48:45.742Z,5.20
2022-11-19T12:49:45.714Z,6.70
2022-11-19T12:50:45.683Z,7.40
2022-11-19T12:51:45.660Z,6.40
2022-11-19T12:52:45.624Z,7.80
2022-11-19T12:53:45.618Z,6.60
2022-11-19T12:54:45.565Z,6.80
2022-11-19T12:55:45.536Z,6.60
2022-11-19T12:56:45.536Z,6.80